Time;durP1;ratioP1;P1;durP2;ratioP2;P2;SDS_P1;SDS_P2;PMS_P1;PMS_P2;Temp;Humidity;BMP_temperature;BMP_pressure;BME280_temperature;BME280_humidity;BME280_pressure;Samples;Min_cycle;Max_cycle;Signal;HPM_P1;HPM_P2
2021/12/21 00:00:59;;;;;;;19.90;4.10;;;5.60;99.90;;;;;;4987729;28;20415;-73
2021/12/21 00:03:27;;;;;;;16.48;3.58;;;5.60;99.90;;;;;;4987346;28;20055;-73
2021/12/21 00:05:56;;;;;;;17.00;4.25;;;5.70;99.90;;;;;;5002473;28;20399;-73
2021/12/21 00:08:24;;;;;;;27.95;4.30;;;5.70;99.90;;;;;;5002578;28;20042;-73
2021/12/21 00:11:11;;;;;;;17.35;3.60;;;5.70;99.90;;;;;;4986075;28;20065;-73
2021/12/21 00:13:54;;;;;;;18.20;3.83;;;5.70;99.90;;;;;;4987629;28;20786;-73
2021/12/21 00:16:47;;;;;;;16.20;3.65;;;5.70;99.90;;;;;;5002391;28;20050;-73
2021/12/21 00:19:41;;;;;;;20.13;3.85;;;5.70;99.90;;;;;;4985884;28;20061;-73
2021/12/21 00:22:09;;;;;;;14.77;3.53;;;5.80;99.90;;;;;;5018324;28;20061;-73
2021/12/21 00:24:45;;;;;;;18.00;3.60;;;5.70;99.90;;;;;;4987238;28;20057;-73
2021/12/21 00:27:14;;;;;;;15.77;3.50;;;5.70;99.90;;;;;;4986152;28;20054;-75
2021/12/21 00:29:42;;;;;;;14.23;3.90;;;5.70;99.90;;;;;;5001953;28;20061;-72
2021/12/21 00:32:11;;;;;;;12.98;3.90;;;5.70;99.90;;;;;;5001795;28;20058;-72
2021/12/21 00:34:40;;;;;;;17.52;5.47;;;5.70;99.90;;;;;;5018340;28;20050;-73
2021/12/21 00:37:08;;;;;;;16.92;5.07;;;5.70;99.90;;;;;;4985532;28;20057;-73
2021/12/21 00:39:35;;;;;;;14.30;3.97;;;5.70;99.90;;;;;;5001554;28;20054;-73
2021/12/21 00:42:03;;;;;;;21.75;3.75;;;5.70;99.90;;;;;;4986793;28;20047;-73
2021/12/21 00:44:31;;;;;;;19.77;4.05;;;5.70;99.90;;;;;;4986310;28;20057;-73
2021/12/21 00:46:59;;;;;;;19.52;4.18;;;5.70;99.90;;;;;;4987284;28;20073;-73
2021/12/21 00:49:27;;;;;;;17.10;4.63;;;5.70;99.90;;;;;;4985767;28;20065;-73
2021/12/21 00:51:55;;;;;;;;;;;5.70;99.90;;;;;;5002710;28;20055;-74
2021/12/21 00:54:22;;;;;;;18.35;4.43;;;5.70;99.90;;;;;;5018226;28;20586;-73
2021/12/21 00:56:50;;;;;;;19.35;4.20;;;5.70;99.90;;;;;;4986639;28;20069;-73
2021/12/21 00:59:18;;;;;;;19.73;5.05;;;5.70;99.90;;;;;;4986825;28;20046;-73
2021/12/21 01:01:46;;;;;;;17.35;5.18;;;5.70;99.90;;;;;;4986451;28;20046;-73
2021/12/21 01:04:22;;;;;;;17.45;5.20;;;5.70;99.90;;;;;;4986577;28;20046;-73
2021/12/21 01:18:01;;;;;;;17.35;4.88;;;5.70;99.90;;;;;;4973263;28;20055;-73
2021/12/21 01:20:39;;;;;;;18.48;4.32;;;5.70;99.90;;;;;;4991745;28;20050;-73
2021/12/21 01:28:38;;;;;;;13.32;4.00;;;5.60;99.90;;;;;;4993096;28;20506;-73
2021/12/21 01:36:13;;;;;;;16.70;4.22;;;5.60;99.90;;;;;;4991714;28;20046;-74
2021/12/21 01:38:54;;;;;;;15.35;4.70;;;5.60;99.90;;;;;;4991520;28;20255;-73
2021/12/21 01:41:37;;;;;;;20.00;4.15;;;5.60;99.90;;;;;;4992108;28;20057;-74
2021/12/21 01:49:43;;;;;;;13.23;4.05;;;5.60;99.90;;;;;;4992774;28;20061;-74
2021/12/21 01:52:14;;;;;;;13.23;3.92;;;5.50;99.90;;;;;;4991000;28;20058;-73
2021/12/21 01:54:43;;;;;;;22.30;4.13;;;5.60;99.90;;;;;;5008062;28;20054;-72
2021/12/21 01:57:12;;;;;;;16.75;4.25;;;5.50;99.90;;;;;;4991753;28;20061;-74
2021/12/21 01:59:42;;;;;;;16.05;4.40;;;5.40;99.90;;;;;;5024253;28;20589;-73
2021/12/21 02:02:13;;;;;;;14.90;4.68;;;5.50;99.90;;;;;;4992885;28;20434;-73
2021/12/21 02:04:42;;;;;;;15.27;4.50;;;5.50;99.90;;;;;;4992963;28;20047;-73
2021/12/21 02:07:10;;;;;;;13.43;4.10;;;5.40;99.90;;;;;;5024205;28;20050;-73
2021/12/21 02:09:38;;;;;;;;;;;5.40;99.90;;;;;;5008545;28;20045;-73
2021/12/21 02:12:12;;;;;;;10.48;4.00;;;5.40;99.90;;;;;;4992456;28;19922;-73
2021/12/21 02:14:41;;;;;;;16.27;4.80;;;5.40;99.90;;;;;;4991264;28;20061;-74
2021/12/21 02:20:03;;;;;;;22.02;4.47;;;5.40;99.90;;;;;;5004542;28;20054;-73
2021/12/21 02:22:34;;;;;;;13.48;4.60;;;5.40;99.90;;;;;;4989884;28;20837;-74
2021/12/21 02:25:35;;;;;;;11.38;4.53;;;5.40;99.90;;;;;;4989566;28;20486;-72
2021/12/21 02:30:43;;;;;;;14.35;4.50;;;5.40;99.90;;;;;;4989316;28;20055;-72
2021/12/21 02:33:13;;;;;;;12.90;4.22;;;5.40;99.90;;;;;;5004278;28;20049;-73
2021/12/21 02:35:42;;;;;;;17.42;4.80;;;5.40;99.90;;;;;;5019231;28;20055;-74
2021/12/21 02:38:10;;;;;;;13.30;4.68;;;5.40;99.90;;;;;;4989008;28;20694;-73
2021/12/21 02:40:39;;;;;;;17.45;4.93;;;5.40;99.90;;;;;;4989325;28;20049;-73
2021/12/21 02:43:09;;;;;;;17.13;4.80;;;5.40;99.90;;;;;;4989041;28;20066;-73
2021/12/21 02:45:38;;;;;;;20.40;5.40;;;5.40;99.90;;;;;;4989568;28;20054;-74
2021/12/21 02:48:07;;;;;;;19.85;5.13;;;5.40;99.90;;;;;;4989588;28;20510;-73
2021/12/21 02:50:36;;;;;;;18.73;4.65;;;5.40;99.90;;;;;;4989781;28;20065;-71
2021/12/21 02:53:05;;;;;;;18.70;5.00;;;5.40;99.90;;;;;;4983001;28;20050;-72
2021/12/21 02:55:34;;;;;;;24.85;5.22;;;5.40;99.90;;;;;;4987863;28;20042;-72
2021/12/21 02:58:02;;;;;;;17.15;5.40;;;5.40;99.90;;;;;;4989467;28;20525;-72
2021/12/21 03:00:33;;;;;;;15.35;5.07;;;5.40;99.90;;;;;;4989729;28;20384;-72
2021/12/21 03:03:07;;;;;;;15.90;5.20;;;5.30;99.90;;;;;;5004437;28;20050;-73
2021/12/21 03:05:37;;;;;;;15.63;5.22;;;5.40;99.90;;;;;;4988033;28;20054;-73
2021/12/21 03:08:18;;;;;;;16.88;5.00;;;5.40;99.90;;;;;;4989148;28;20061;-73
2021/12/21 03:11:05;;;;;;;18.95;4.82;;;5.40;99.90;;;;;;4987875;28;20057;-74
2021/12/21 03:16:21;;;;;;;15.25;5.20;;;5.50;99.90;;;;;;4989193;28;20066;-73
2021/12/21 03:18:48;;;;;;;17.40;5.78;;;5.40;99.90;;;;;;4989032;28;20050;-73
2021/12/21 03:21:17;;;;;;;17.08;5.90;;;5.40;99.90;;;;;;4989384;28;20132;-73
2021/12/21 03:23:44;;;;;;;21.17;5.25;;;5.40;99.90;;;;;;4987490;28;20049;-74
2021/12/21 03:26:12;;;;;;;18.73;5.55;;;5.40;99.90;;;;;;5020458;28;20531;-74
2021/12/21 03:28:40;;;;;;;19.00;5.55;;;5.40;99.90;;;;;;4988292;28;20050;-73
2021/12/21 03:31:10;;;;;;;17.00;5.60;;;5.40;99.90;;;;;;5020395;28;20057;-73
2021/12/21 03:33:38;;;;;;;13.85;5.65;;;5.40;99.90;;;;;;4988710;28;20062;-73
2021/12/21 03:36:06;;;;;;;;;;;5.40;99.90;;;;;;4989186;28;20102;-73
2021/12/21 03:38:35;;;;;;;19.27;4.97;;;5.40;99.90;;;;;;4987485;28;19926;-73
2021/12/21 03:41:08;;;;;;;17.15;5.40;;;5.40;99.90;;;;;;5019869;28;20073;-73
2021/12/21 03:43:36;;;;;;;19.27;5.50;;;5.40;99.90;;;;;;4986988;28;20493;-73
2021/12/21 03:46:12;;;;;;;20.10;5.95;;;5.40;99.90;;;;;;4987181;28;20050;-73
2021/12/21 03:48:42;;;;;;;16.50;5.95;;;5.30;99.90;;;;;;4976750;28;20057;-73
2021/12/21 03:51:11;;;;;;;23.05;6.82;;;5.40;99.90;;;;;;4983841;28;20055;-73
2021/12/21 03:53:39;;;;;;;17.88;6.22;;;5.40;99.90;;;;;;5000552;28;20047;-73
2021/12/21 03:58:45;;;;;;;20.55;6.63;;;5.40;99.90;;;;;;4984136;28;20055;-73
2021/12/21 04:01:13;;;;;;;22.88;6.82;;;5.40;99.90;;;;;;4969148;28;20062;-73
2021/12/21 04:03:41;;;;;;;23.17;7.30;;;5.40;99.90;;;;;;4994501;28;20038;-73
2021/12/21 04:06:09;;;;;;;23.77;7.60;;;5.40;99.90;;;;;;4988220;28;20046;-73
2021/12/21 04:08:37;;;;;;;22.30;7.38;;;5.30;99.90;;;;;;4988295;28;20057;-73
2021/12/21 04:11:04;;;;;;;26.92;7.25;;;5.40;99.90;;;;;;4988348;28;20053;-73
2021/12/21 04:13:32;;;;;;;22.70;6.82;;;5.30;99.90;;;;;;4986904;28;20054;-73
2021/12/21 04:16:03;;;;;;;18.88;6.82;;;5.30;99.90;;;;;;4986892;28;20053;-73
2021/12/21 04:18:37;;;;;;;20.73;7.20;;;5.30;99.90;;;;;;4987232;28;20517;-73
2021/12/21 04:21:09;;;;;;;20.48;6.85;;;5.30;99.90;;;;;;4986752;28;20069;-73
2021/12/21 04:23:36;;;;;;;17.50;7.22;;;5.40;99.90;;;;;;4988328;28;20046;-74
2021/12/21 04:26:04;;;;;;;23.98;7.35;;;5.30;99.90;;;;;;4988071;28;20038;-74
2021/12/21 04:28:34;;;;;;;21.17;7.57;;;5.30;99.90;;;;;;4986627;28;20101;-73
2021/12/21 04:31:04;;;;;;;19.35;7.78;;;5.30;99.90;;;;;;4986858;28;20053;-73
2021/12/21 04:33:32;;;;;;;18.70;7.60;;;5.30;99.90;;;;;;4987611;28;20054;-73
2021/12/21 04:36:01;;;;;;;19.17;6.88;;;5.30;99.90;;;;;;4986481;28;20065;-73
2021/12/21 04:38:33;;;;;;;23.60;7.32;;;5.30;99.90;;;;;;4987979;28;20534;-72
2021/12/21 04:41:12;;;;;;;20.00;7.05;;;5.30;99.90;;;;;;5001300;28;20046;-72
2021/12/21 04:43:42;;;;;;;23.95;7.60;;;5.30;99.90;;;;;;4986205;28;20065;-73
2021/12/21 04:46:11;;;;;;;18.40;7.32;;;5.30;99.90;;;;;;4985856;28;20058;-73
2021/12/21 04:48:39;;;;;;;24.40;7.28;;;5.30;99.90;;;;;;4987648;28;20776;-72
2021/12/21 04:51:06;;;;;;;;;;;5.40;99.90;;;;;;5002861;28;20054;-73
2021/12/21 04:53:34;;;;;;;18.58;7.38;;;5.30;99.90;;;;;;4987758;28;20601;-73
2021/12/21 04:56:03;;;;;;;24.08;6.97;;;5.30;99.90;;;;;;5018986;28;20061;-74
2021/12/21 04:58:31;;;;;;;15.93;6.03;;;5.30;99.90;;;;;;5002622;28;20054;-72
2021/12/21 05:00:59;;;;;;;21.23;6.50;;;5.30;99.90;;;;;;5018099;28;20053;-72
2021/12/21 05:03:27;;;;;;;20.83;7.32;;;5.30;99.90;;;;;;4986340;28;20054;-73
2021/12/21 05:05:55;;;;;;;14.43;6.28;;;5.30;99.90;;;;;;4986939;28;20047;-73
2021/12/21 05:08:26;;;;;;;18.55;6.78;;;5.30;99.90;;;;;;4987307;28;20062;-73
2021/12/21 05:10:59;;;;;;;23.52;7.03;;;5.30;99.90;;;;;;4987466;28;20491;-73
2021/12/21 05:13:30;;;;;;;18.25;6.63;;;5.30;99.90;;;;;;4985877;28;20157;-73
2021/12/21 05:15:58;;;;;;;15.63;7.13;;;5.30;99.90;;;;;;4984715;28;20046;-73
2021/12/21 05:18:27;;;;;;;19.58;7.13;;;5.30;99.90;;;;;;4987462;28;20061;-73
2021/12/21 05:20:55;;;;;;;16.95;6.70;;;5.30;99.90;;;;;;4987357;28;20061;-73
2021/12/21 05:23:23;;;;;;;20.15;7.45;;;5.30;99.90;;;;;;4986113;28;20058;-73
2021/12/21 05:25:51;;;;;;;18.40;7.47;;;5.20;99.90;;;;;;4987291;28;20401;-73
2021/12/21 05:28:19;;;;;;;15.60;6.88;;;5.30;99.90;;;;;;4987474;28;20057;-73
2021/12/21 05:30:46;;;;;;;;;;;5.20;99.90;;;;;;5002776;28;20534;-73
2021/12/21 05:33:15;;;;;;;20.25;7.30;;;5.20;99.90;;;;;;4987660;28;19922;-73
2021/12/21 05:35:43;;;;;;;16.95;7.80;;;5.40;99.90;;;;;;4986919;28;20065;-73
2021/12/21 05:38:16;;;;;;;18.42;6.82;;;5.30;99.90;;;;;;4985306;28;20053;-73
2021/12/21 05:40:46;;;;;;;19.60;6.90;;;5.20;99.90;;;;;;4987167;28;20046;-73
2021/12/21 05:43:15;;;;;;;23.58;7.63;;;5.20;99.90;;;;;;4987148;28;20053;-73
2021/12/21 05:45:43;;;;;;;28.40;8.10;;;5.20;99.90;;;;;;5002000;28;20065;-73
2021/12/21 05:48:10;;;;;;;31.35;9.05;;;5.20;99.90;;;;;;5001489;28;20625;-73
2021/12/21 05:50:38;;;;;;;18.80;7.38;;;5.20;99.90;;;;;;5017504;28;20054;-73
2021/12/21 05:53:06;;;;;;;19.85;7.10;;;5.20;99.90;;;;;;4988819;28;20053;-73
2021/12/21 05:55:34;;;;;;;24.02;7.13;;;5.20;99.90;;;;;;4990394;28;20065;-73
2021/12/21 05:58:02;;;;;;;23.55;6.88;;;5.20;99.90;;;;;;4990096;28;20511;-73
2021/12/21 06:00:31;;;;;;;;;;;5.20;99.90;;;;;;4990814;28;20074;-73
2021/12/21 06:02:59;;;;;;;18.13;6.13;;;5.20;99.90;;;;;;5021471;28;19922;-73
2021/12/21 06:05:27;;;;;;;;;;;5.30;99.90;;;;;;5021558;28;20475;-72
2021/12/21 06:07:55;;;;;;;;;;;5.20;99.90;;;;;;5021877;28;19925;-73
2021/12/21 06:10:39;;;;;;;;;;;5.20;99.90;;;;;;4989123;28;20302;-73
2021/12/21 06:27:00;;;;;;;20.60;8.50;;;5.10;99.90;;;;;;4989567;28;20046;-73
2021/12/21 06:29:28;;;;;;;;;;;5.10;99.90;;;;;;5004976;28;20057;-73
2021/12/21 06:31:56;;;;;;;19.38;7.60;;;5.10;99.90;;;;;;4989571;28;19933;-73
2021/12/21 06:34:24;;;;;;;17.05;7.38;;;5.10;99.90;;;;;;4989064;28;20058;-73
2021/12/21 06:36:52;;;;;;;22.65;7.85;;;5.10;99.90;;;;;;5020797;28;20061;-73
2021/12/21 06:39:20;;;;;;;;;;;5.20;99.90;;;;;;5004758;28;20053;-73
2021/12/21 06:41:48;;;;;;;20.90;8.65;;;5.10;99.90;;;;;;4989438;28;19925;-73
2021/12/21 06:44:16;;;;;;;19.85;9.10;;;5.10;99.90;;;;;;4989597;28;20078;-73
2021/12/21 06:52:18;;;;;;;19.80;7.95;;;5.10;99.90;;;;;;4986993;28;20050;-73
2021/12/21 06:54:46;;;;;;;21.42;9.20;;;5.10;99.90;;;;;;5004179;28;20046;-73
2021/12/21 06:57:14;;;;;;;24.98;9.63;;;5.10;99.90;;;;;;5004183;28;20043;-73
2021/12/21 06:59:42;;;;;;;27.83;10.15;;;5.10;99.90;;;;;;4987647;28;20058;-73
2021/12/21 07:02:10;;;;;;;20.10;8.95;;;5.10;99.90;;;;;;4988942;28;20050;-73
2021/12/21 07:04:38;;;;;;;27.20;10.73;;;5.10;99.90;;;;;;4988016;28;20054;-73
2021/12/21 07:07:09;;;;;;;26.20;11.23;;;5.10;99.90;;;;;;4988803;28;20046;-75
2021/12/21 07:09:42;;;;;;;27.95;12.02;;;5.10;99.90;;;;;;5003737;28;20061;-72
2021/12/21 07:20:12;;;;;;;30.25;11.27;;;5.20;99.90;;;;;;4986068;28;20411;-73
2021/12/21 07:22:39;;;;;;;26.13;12.02;;;5.10;99.90;;;;;;5003552;28;20042;-74
2021/12/21 07:25:07;;;;;;;28.42;11.27;;;5.20;99.90;;;;;;5019695;28;20050;-73
2021/12/21 07:27:35;;;;;;;32.72;11.75;;;5.10;99.90;;;;;;5019805;28;20056;-73
2021/12/21 07:30:05;;;;;;;27.17;13.55;;;5.10;99.90;;;;;;5020002;28;20058;-73
2021/12/21 07:32:33;;;;;;;33.47;13.07;;;5.10;99.90;;;;;;5019485;28;20483;-74
2021/12/21 07:35:04;;;;;;;27.42;13.30;;;5.10;99.90;;;;;;4987824;28;20061;-73
2021/12/21 07:37:32;;;;;;;29.23;13.73;;;5.10;99.90;;;;;;5018113;28;20050;-73
2021/12/21 07:39:59;;;;;;;32.42;14.30;;;5.10;99.90;;;;;;5019573;28;20065;-73
2021/12/21 07:42:27;;;;;;;28.25;14.43;;;5.10;99.90;;;;;;4988204;28;20054;-73
2021/12/21 07:44:55;;;;;;;28.77;14.57;;;5.10;99.90;;;;;;4976157;28;20062;-73
2021/12/21 07:47:23;;;;;;;39.80;16.08;;;5.10;99.90;;;;;;4968014;28;20050;-73
2021/12/21 07:49:51;;;;;;;31.55;15.43;;;5.10;99.90;;;;;;5002907;28;20054;-73
2021/12/21 07:52:19;;;;;;;34.20;16.08;;;5.20;99.90;;;;;;4973779;28;20046;-72
2021/12/21 07:54:47;;;;;;;33.13;14.63;;;5.10;99.90;;;;;;4978710;28;20914;-72
2021/12/21 07:57:14;;;;;;;33.70;15.77;;;5.20;99.90;;;;;;4954088;28;20050;-73
2021/12/21 07:59:42;;;;;;;36.08;15.90;;;5.10;99.90;;;;;;4985026;28;20050;-72
2021/12/21 08:02:12;;;;;;;36.65;16.38;;;5.10;99.90;;;;;;4986513;28;20419;-75
2021/12/21 08:04:42;;;;;;;41.78;16.73;;;5.10;99.90;;;;;;4982322;28;20158;-73
2021/12/21 08:07:14;;;;;;;39.42;16.10;;;5.10;99.90;;;;;;5011441;28;20050;-72
2021/12/21 08:09:46;;;;;;;36.72;15.57;;;5.10;99.90;;;;;;4986447;28;20526;-72
2021/12/21 08:12:16;;;;;;;43.78;16.27;;;5.10;99.90;;;;;;4998002;28;20046;-73
2021/12/21 08:14:47;;;;;;;42.78;16.42;;;5.10;99.90;;;;;;5000497;28;20054;-73
2021/12/21 08:17:16;;;;;;;36.65;16.73;;;5.10;99.90;;;;;;4986076;28;20062;-73
2021/12/21 08:19:45;;;;;;;37.08;17.15;;;5.10;99.90;;;;;;4983713;28;20042;-73
2021/12/21 08:22:13;;;;;;;47.45;17.27;;;5.10;99.90;;;;;;5018274;28;20053;-73
2021/12/21 08:24:42;;;;;;;46.83;17.50;;;5.10;99.90;;;;;;5001811;28;20042;-72
2021/12/21 08:27:10;;;;;;;42.75;18.02;;;5.10;99.90;;;;;;4985882;28;20050;-73
2021/12/21 08:29:38;;;;;;;38.13;16.85;;;5.20;99.90;;;;;;4986200;28;20042;-73
2021/12/21 08:32:07;;;;;;;41.53;16.75;;;5.20;99.90;;;;;;4987088;28;20604;-72
2021/12/21 08:34:35;;;;;;;46.25;17.25;;;5.10;99.90;;;;;;5018258;28;20054;-72
2021/12/21 08:37:03;;;;;;;41.42;17.77;;;5.10;99.90;;;;;;5018399;28;20161;-72
2021/12/21 08:39:39;;;;;;;44.45;17.58;;;5.20;99.90;;;;;;5017982;28;20050;-72
2021/12/21 08:42:12;;;;;;;38.40;17.23;;;5.20;99.90;;;;;;4986445;28;20042;-72
2021/12/21 08:44:41;;;;;;;40.25;17.48;;;5.20;99.90;;;;;;4969414;28;20070;-72
2021/12/21 08:47:09;;;;;;;45.97;17.08;;;5.20;99.90;;;;;;4984126;28;20061;-73
2021/12/21 08:49:37;;;;;;;40.25;18.63;;;5.20;99.90;;;;;;5017865;28;20072;-72
2021/12/21 08:52:05;;;;;;;40.40;18.17;;;5.20;99.90;;;;;;4985857;28;20959;-72
2021/12/21 08:54:37;;;;;;;48.80;18.20;;;5.20;99.90;;;;;;4983760;28;20525;-76
2021/12/21 08:57:05;;;;;;;;;;;5.10;99.90;;;;;;4961963;28;20387;-75
2021/12/21 08:59:33;;;;;;;52.97;18.25;;;5.20;99.90;;;;;;4969478;28;19922;-75
2021/12/21 09:02:01;;;;;;;41.90;18.15;;;5.30;99.90;;;;;;4979472;28;20043;-75
2021/12/21 09:04:30;;;;;;;45.85;18.60;;;5.30;99.90;;;;;;4983847;28;20050;-75
2021/12/21 09:06:57;;;;;;;45.30;18.10;;;5.30;99.90;;;;;;4975944;28;20054;-75
2021/12/21 09:09:25;;;;;;;49.72;18.63;;;5.30;99.90;;;;;;4995930;28;20065;-76
2021/12/21 09:11:53;;;;;;;43.63;19.13;;;5.30;99.90;;;;;;4985422;28;20058;-74
2021/12/21 09:14:24;;;;;;;47.85;19.88;;;5.30;99.90;;;;;;4985047;28;20399;-74
2021/12/21 09:16:51;;;;;;;;;;;5.30;99.90;;;;;;4991330;28;20050;-75
2021/12/21 09:19:19;;;;;;;51.45;19.38;;;5.30;99.90;;;;;;4983869;28;20012;-81
2021/12/21 09:22:00;;;;;;;48.70;19.70;;;5.30;99.90;;;;;;4986306;28;20047;-77
2021/12/21 09:24:29;;;;;;;41.15;19.15;;;5.40;99.90;;;;;;4998063;28;20050;-77
2021/12/21 09:26:57;;;;;;;;;;;5.40;99.90;;;;;;4981741;28;20057;-77
2021/12/21 09:29:24;;;;;;;43.15;19.17;;;5.40;99.90;;;;;;5020130;28;19937;-77
2021/12/21 09:31:52;;;;;;;52.58;19.90;;;5.40;99.90;;;;;;4992906;28;20073;-80
2021/12/21 09:34:20;;;;;;;46.55;19.92;;;5.50;99.90;;;;;;4984304;28;20051;-74
2021/12/21 09:36:48;;;;;;;44.67;19.45;;;5.40;99.90;;;;;;4984313;28;20065;-73
2021/12/21 09:39:15;;;;;;;48.25;20.67;;;5.40;99.90;;;;;;4989127;28;20043;-74
2021/12/21 09:41:44;;;;;;;46.47;21.27;;;5.40;99.90;;;;;;4988650;28;20046;-74
2021/12/21 09:44:12;;;;;;;49.67;20.83;;;5.40;99.90;;;;;;4987598;28;20585;-74
2021/12/21 09:46:40;;;;;;;45.33;20.73;;;5.50;99.90;;;;;;5001517;28;20054;-74
2021/12/21 09:49:09;;;;;;;42.05;21.40;;;5.60;99.90;;;;;;4983238;28;20503;-73
2021/12/21 09:51:37;;;;;;;51.42;21.15;;;5.50;99.90;;;;;;5014230;28;20423;-72
2021/12/21 09:54:04;;;;;;;52.60;21.65;;;5.50;99.90;;;;;;4990098;28;20815;-73
2021/12/21 09:56:33;;;;;;;44.83;19.25;;;5.60;99.90;;;;;;5004601;28;20050;-72
2021/12/21 09:59:02;;;;;;;46.17;19.60;;;5.60;99.90;;;;;;5021460;28;20042;-73
2021/12/21 10:01:30;;;;;;;45.47;19.65;;;5.60;99.90;;;;;;4985288;28;20061;-73
2021/12/21 10:03:57;;;;;;;47.17;20.13;;;5.60;99.90;;;;;;4985152;28;20042;-73
2021/12/21 10:06:25;;;;;;;45.08;19.00;;;5.60;99.90;;;;;;4985118;28;20050;-73
2021/12/21 10:09:05;;;;;;;42.30;17.75;;;5.70;99.90;;;;;;4984087;28;20053;-73
2021/12/21 10:11:42;;;;;;;48.78;19.52;;;5.70;99.90;;;;;;5014297;28;20046;-72
2021/12/21 10:14:10;;;;;;;47.05;20.33;;;5.70;99.90;;;;;;5000739;28;20054;-75
2021/12/21 10:16:38;;;;;;;46.20;19.40;;;5.70;99.90;;;;;;4987929;28;20050;-72
2021/12/21 10:19:06;;;;;;;47.53;20.60;;;5.70;99.90;;;;;;4989887;28;20553;-72
2021/12/21 10:21:44;;;;;;;42.90;19.48;;;5.80;99.90;;;;;;4988179;28;20042;-72
2021/12/21 10:24:26;;;;;;;50.40;19.98;;;5.80;99.90;;;;;;4989612;28;20043;-72
2021/12/21 10:27:06;;;;;;;47.45;18.63;;;5.90;99.90;;;;;;4989486;28;20046;-74
2021/12/21 10:29:49;;;;;;;45.00;20.75;;;5.90;99.90;;;;;;4989751;28;20042;-73
2021/12/21 10:32:27;;;;;;;38.85;18.20;;;5.90;99.90;;;;;;4989623;28;20850;-72
2021/12/21 10:35:06;;;;;;;48.22;19.67;;;6.00;99.90;;;;;;4989460;28;20042;-73
2021/12/21 10:37:37;;;;;;;38.72;18.75;;;6.10;99.90;;;;;;5003910;28;20054;-73
2021/12/21 10:40:25;;;;;;;34.65;17.23;;;6.10;99.90;;;;;;5003110;28;20057;-72
2021/12/21 10:42:55;;;;;;;45.08;18.02;;;6.20;99.90;;;;;;5004031;28;20043;-73
2021/12/21 10:45:26;;;;;;;39.83;18.02;;;6.10;99.90;;;;;;4987861;28;20057;-74
2021/12/21 10:47:55;;;;;;;47.13;19.80;;;6.20;99.90;;;;;;4989067;28;20046;-73
2021/12/21 10:50:24;;;;;;;40.05;16.80;;;6.20;99.90;;;;;;4986948;28;20062;-73
2021/12/21 10:52:57;;;;;;;37.38;18.05;;;6.20;99.90;;;;;;4987466;28;20046;-73
2021/12/21 10:55:37;;;;;;;45.10;18.08;;;6.30;99.90;;;;;;4987044;28;20046;-72
2021/12/21 10:58:28;;;;;;;38.08;16.90;;;6.30;99.90;;;;;;4987409;28;20038;-73
2021/12/21 11:01:00;;;;;;;35.15;15.77;;;6.30;99.90;;;;;;4988544;28;20034;-72
2021/12/21 11:03:37;;;;;;;35.35;17.60;;;6.30;99.90;;;;;;5020189;28;20058;-72
2021/12/21 11:06:10;;;;;;;36.63;16.98;;;6.40;99.90;;;;;;4970904;28;20042;-73
2021/12/21 11:08:45;;;;;;;43.67;18.30;;;6.40;99.90;;;;;;5020196;28;20058;-72
2021/12/21 11:11:47;;;;;;;33.80;15.85;;;6.40;99.90;;;;;;4985603;28;20053;-73
2021/12/21 11:14:18;;;;;;;35.53;18.08;;;6.40;99.90;;;;;;5001916;28;20054;-73
2021/12/21 11:16:49;;;;;;;33.80;16.90;;;6.50;99.90;;;;;;4986820;28;20117;-74
2021/12/21 11:19:20;;;;;;;38.95;17.00;;;6.50;99.90;;;;;;4985696;28;20054;-73
2021/12/21 11:21:48;;;;;;;35.83;16.35;;;6.50;99.90;;;;;;4985488;28;20070;-73
2021/12/21 11:24:18;;;;;;;38.67;16.75;;;6.50;99.90;;;;;;4985974;28;20395;-73
2021/12/21 11:26:48;;;;;;;40.83;16.33;;;6.50;99.90;;;;;;4986357;28;20046;-73
2021/12/21 11:29:18;;;;;;;38.95;16.92;;;6.50;99.90;;;;;;5019769;28;20069;-72
2021/12/21 11:31:49;;;;;;;42.70;15.75;;;6.60;99.90;;;;;;4988586;28;20591;-72
2021/12/21 11:34:21;;;;;;;28.83;13.35;;;6.60;99.90;;;;;;4988351;28;20050;-72
2021/12/21 11:39:41;;;;;;;30.70;13.32;;;6.70;99.90;;;;;;4988026;28;20463;-74
2021/12/21 11:42:19;;;;;;;30.08;14.60;;;6.70;99.90;;;;;;4985974;28;20054;-74
2021/12/21 11:44:58;;;;;;;34.90;17.48;;;6.70;99.90;;;;;;4987777;28;20058;-74
2021/12/21 11:47:39;;;;;;;33.97;14.43;;;6.70;99.90;;;;;;5002234;28;20062;-75
2021/12/21 11:50:09;;;;;;;32.50;14.30;;;6.80;99.90;;;;;;4987479;28;20065;-72
2021/12/21 11:52:52;;;;;;;33.47;14.63;;;6.80;99.90;;;;;;4988008;28;20050;-72
2021/12/21 11:55:25;;;;;;;31.17;14.18;;;6.70;99.90;;;;;;4987376;28;20518;-73
2021/12/21 11:57:59;;;;;;;30.55;13.20;;;7.00;99.90;;;;;;5018664;28;20494;-73
2021/12/21 12:00:31;;;;;;;31.50;13.85;;;6.90;99.90;;;;;;4987426;28;20404;-73
2021/12/21 12:03:14;;;;;;;26.45;14.02;;;6.90;99.90;;;;;;4986519;28;20053;-73
2021/12/21 12:05:57;;;;;;;26.67;10.27;;;6.90;99.90;;;;;;5016981;28;20058;-75
2021/12/21 12:08:27;;;;;;;29.27;11.68;;;6.90;99.90;;;;;;4984833;28;20054;-73
2021/12/21 12:10:58;;;;;;;26.15;9.88;;;6.90;99.90;;;;;;4985411;28;20054;-73
2021/12/21 12:13:33;;;;;;;28.00;11.60;;;6.90;99.90;;;;;;4998850;28;20049;-73
2021/12/21 12:16:17;;;;;;;34.95;12.32;;;6.90;99.90;;;;;;4984665;28;20055;-73
2021/12/21 12:18:47;;;;;;;28.58;11.65;;;6.90;99.90;;;;;;4980235;28;20054;-73
2021/12/21 12:21:28;;;;;;;24.58;12.32;;;6.90;99.90;;;;;;4980291;28;20046;-74
2021/12/21 12:24:01;;;;;;;24.15;11.95;;;6.90;99.90;;;;;;4983315;28;20046;-74
2021/12/21 12:26:39;;;;;;;29.00;11.45;;;6.90;99.90;;;;;;5002645;28;20081;-74
2021/12/21 12:29:18;;;;;;;26.00;10.68;;;6.90;99.90;;;;;;4986964;28;20057;-75
2021/12/21 12:31:58;;;;;;;30.88;10.52;;;6.90;99.90;;;;;;4985689;28;20050;-74
2021/12/21 12:34:31;;;;;;;31.25;11.75;;;6.90;99.90;;;;;;4986553;28;20406;-74
2021/12/21 12:37:12;;;;;;;22.58;9.65;;;6.90;99.90;;;;;;5018215;28;20240;-72
2021/12/21 12:39:42;;;;;;;22.98;10.18;;;6.80;99.90;;;;;;4985202;28;20046;-74
2021/12/21 12:42:21;;;;;;;29.33;10.95;;;6.80;99.90;;;;;;4985130;28;20054;-74
2021/12/21 12:45:10;;;;;;;24.88;10.45;;;6.80;99.90;;;;;;5001740;28;20050;-75
2021/12/21 12:47:44;;;;;;;27.52;11.63;;;6.80;99.90;;;;;;4982392;28;20042;-73
2021/12/21 12:50:19;;;;;;;27.02;11.52;;;6.80;99.90;;;;;;4986120;28;20050;-74
2021/12/21 12:52:58;;;;;;;28.77;11.55;;;6.80;99.90;;;;;;4983386;28;20116;-74
2021/12/21 12:55:36;;;;;;;;;;;6.80;99.90;;;;;;5011164;28;20482;-75
2021/12/21 12:58:25;;;;;;;;;;;6.80;99.90;;;;;;4982145;28;19922;-74
2021/12/21 13:01:06;;;;;;;30.02;12.75;;;6.80;99.90;;;;;;4985439;28;19933;-73
2021/12/21 13:03:42;;;;;;;32.22;12.80;;;6.90;99.90;;;;;;4984664;28;20065;-73
2021/12/21 13:06:19;;;;;;;34.13;13.55;;;6.90;99.90;;;;;;4983487;28;20034;-75
2021/12/21 13:08:47;;;;;;;27.80;13.32;;;6.90;99.90;;;;;;4986315;28;20042;-74
2021/12/21 13:11:29;;;;;;;26.80;13.07;;;6.90;99.90;;;;;;4979966;28;20126;-74
2021/12/21 13:13:57;;;;;;;28.10;12.43;;;6.80;99.90;;;;;;4965714;28;20063;-73
2021/12/21 13:16:27;;;;;;;36.10;12.55;;;6.80;99.90;;;;;;5000587;28;20050;-73
2021/12/21 13:19:02;;;;;;;33.92;12.63;;;6.80;99.90;;;;;;5017483;28;20491;-74
2021/12/21 13:21:45;;;;;;;27.35;12.10;;;6.80;99.90;;;;;;5017954;28;20046;-74
2021/12/21 13:24:17;;;;;;;26.17;11.57;;;6.80;99.90;;;;;;4983498;28;20058;-73
2021/12/21 13:26:56;;;;;;;26.73;12.77;;;6.80;99.90;;;;;;4984304;28;20054;-73
2021/12/21 13:29:31;;;;;;;25.20;10.63;;;6.80;99.90;;;;;;4993089;28;20423;-74
2021/12/21 13:32:04;;;;;;;29.23;11.40;;;6.70;99.90;;;;;;4995477;28;20076;-73
2021/12/21 13:34:33;;;;;;;25.23;10.80;;;6.70;99.90;;;;;;4982617;28;20038;-73
2021/12/21 13:37:06;;;;;;;22.17;10.73;;;6.70;99.90;;;;;;4998081;28;20054;-73
2021/12/21 13:39:57;;;;;;;32.28;11.60;;;6.70;99.90;;;;;;4982361;28;20047;-75
2021/12/21 13:42:30;;;;;;;24.85;10.90;;;6.80;99.90;;;;;;4984459;28;20046;-73
2021/12/21 13:45:01;;;;;;;25.42;11.57;;;6.70;99.90;;;;;;4984659;28;20043;-74
2021/12/21 13:47:43;;;;;;;29.13;12.07;;;6.70;99.90;;;;;;4978588;28;20047;-73
2021/12/21 13:50:19;;;;;;;28.38;13.75;;;6.60;99.90;;;;;;4971392;28;20054;-73
2021/12/21 13:53:01;;;;;;;26.67;12.35;;;6.60;99.90;;;;;;4999816;28;20050;-76
2021/12/21 13:55:37;;;;;;;31.67;12.80;;;6.60;99.90;;;;;;4983824;28;20053;-74
2021/12/21 13:58:10;;;;;;;32.65;13.50;;;6.60;99.90;;;;;;4989063;28;20762;-73
2021/12/21 14:00:50;;;;;;;28.05;13.20;;;6.60;99.90;;;;;;4975970;28;20049;-74
2021/12/21 14:05:55;;;;;;;31.58;13.90;;;6.60;99.90;;;;;;4994748;28;21422;-75
2021/12/21 14:08:23;;;;;;;30.08;13.65;;;6.60;99.90;;;;;;4983876;28;20057;-74
2021/12/21 14:10:53;;;;;;;32.67;13.68;;;6.60;99.90;;;;;;4983095;28;20038;-74
2021/12/21 14:13:49;;;;;;;36.00;14.73;;;6.60;99.90;;;;;;4983803;28;20049;-74
2021/12/21 14:16:18;;;;;;;29.65;16.38;;;6.60;99.90;;;;;;4997489;28;20078;-74
2021/12/21 14:18:48;;;;;;;35.38;16.13;;;6.60;99.90;;;;;;4969065;28;20675;-74